Time;durP1;ratioP1;P1;durP2;ratioP2;P2;SDS_P1;SDS_P2;PMS_P1;PMS_P2;Temp;Humidity;BMP_temperature;BMP_pressure;BME280_temperature;BME280_humidity;BME280_pressure;Samples;Min_cycle;Max_cycle;Signal;HPM_P1;HPM_P2
2023/08/07 00:02:15;;;;;;;0.88;0.43;;;;;;;19.03;53.56;98737.00;4483419;32;33710;-73
2023/08/07 00:04:43;;;;;;;0.52;0.30;;;;;;;18.89;53.39;98738.75;4482483;32;34993;-73
2023/08/07 00:07:10;;;;;;;0.20;0.20;;;;;;;18.97;53.64;98735.94;4480514;31;35464;-73
2023/08/07 00:09:38;;;;;;;1.10;0.57;;;;;;;19.07;53.41;98738.31;4492788;31;34407;-73
2023/08/07 00:12:06;;;;;;;0.10;0.10;;;;;;;18.45;54.34;98730.69;4477321;31;33786;-73
2023/08/07 00:14:33;;;;;;;0.95;0.30;;;;;;;18.50;54.17;98739.12;4480976;31;34224;-73
2023/08/07 00:17:01;;;;;;;0.13;0.13;;;;;;;18.33;54.99;98733.03;4482220;31;33584;-73
2023/08/07 00:19:29;;;;;;;0.75;0.20;;;;;;;18.62;54.22;98732.19;4495382;31;33152;-74
2023/08/07 00:21:56;;;;;;;0.10;0.10;;;;;;;18.63;54.39;98728.44;4490207;31;34657;-74
2023/08/07 00:24:24;;;;;;;0.10;0.10;;;;;;;18.53;54.69;98731.44;4480969;31;34173;-74
2023/08/07 00:26:52;;;;;;;0.10;0.10;;;;;;;18.01;55.87;98729.75;4478212;31;33604;-74
2023/08/07 00:29:20;;;;;;;0.28;0.28;;;;;;;18.83;54.39;98734.09;4482784;31;34184;-73
2023/08/07 00:31:47;;;;;;;0.10;0.10;;;;;;;18.58;54.83;98720.84;4491811;31;33485;-73
2023/08/07 00:34:15;;;;;;;0.10;0.10;;;;;;;18.52;54.57;98727.06;4493335;31;33712;-74
2023/08/07 00:36:43;;;;;;;0.10;0.10;;;;;;;18.71;54.09;98731.00;4482031;31;33598;-74
2023/08/07 00:39:11;;;;;;;0.20;0.20;;;;;;;18.20;55.54;98741.84;4494551;31;33409;-74
2023/08/07 00:41:39;;;;;;;0.45;0.30;;;;;;;18.19;55.82;98737.47;4495665;31;34582;-74
2023/08/07 00:44:07;;;;;;;2.53;0.30;;;;;;;18.84;54.64;98741.19;4493144;31;35177;-74
2023/08/07 00:46:35;;;;;;;0.40;0.20;;;;;;;18.96;54.18;98739.66;4484464;31;35344;-73
2023/08/07 00:49:03;;;;;;;0.20;0.20;;;;;;;18.99;53.87;98735.72;4492879;31;32210;-74
2023/08/07 00:51:31;;;;;;;0.20;0.20;;;;;;;18.88;54.39;98728.09;4497206;31;34693;-74
2023/08/07 00:54:00;;;;;;;0.20;0.20;;;;;;;18.78;54.05;98731.97;4475664;32;34992;-74
2023/08/07 00:56:29;;;;;;;0.20;0.20;;;;;;;18.23;55.61;98724.38;4446159;32;35020;-74
2023/08/07 00:58:58;;;;;;;0.10;0.10;;;;;;;18.82;53.96;98729.72;4457735;32;32821;-74
2023/08/07 01:01:25;;;;;;;0.70;0.43;;;;;;;18.81;53.68;98726.16;4451089;32;34895;-73
2023/08/07 01:03:54;;;;;;;1.05;0.15;;;;;;;18.96;53.95;98717.12;4438435;32;34048;-74
2023/08/07 01:06:21;;;;;;;0.13;0.13;;;;;;;18.58;54.74;98720.00;4457213;32;33698;-74
2023/08/07 01:08:49;;;;;;;0.10;0.10;;;;;;;18.97;53.21;98719.66;4456680;32;34434;-75
2023/08/07 01:11:48;;;;;;;0.65;0.35;;;;;;;18.76;53.94;98725.06;4447287;32;33757;-74
2023/08/07 01:14:40;;;;;;;0.82;0.80;;;;;;;18.25;55.47;98736.72;4420440;32;33970;-74
2023/08/07 01:17:11;;;;;;;0.20;0.20;;;;;;;18.56;54.64;98735.66;4432061;32;34652;-75
2023/08/07 01:19:39;;;;;;;2.00;1.10;;;;;;;18.63;54.23;98728.44;4418918;32;33356;-74
2023/08/07 01:22:10;;;;;;;0.10;0.10;;;;;;;18.54;53.85;98734.97;4434543;32;32881;-74
2023/08/07 01:24:40;;;;;;;0.17;0.17;;;;;;;18.19;54.87;98740.16;4441434;32;32589;-74
2023/08/07 01:27:17;;;;;;;0.20;0.20;;;;;;;18.24;54.98;98754.00;4463203;32;33779;-74
2023/08/07 01:30:12;;;;;;;0.10;0.10;;;;;;;18.81;52.65;98747.84;4465672;32;33226;-74
2023/08/07 01:32:43;;;;;;;0.25;0.25;;;;;;;18.38;53.58;98750.41;4465558;32;32301;-74
2023/08/07 01:35:14;;;;;;;3.08;0.80;;;;;;;18.54;53.63;98748.53;4463445;32;33748;-74
2023/08/07 01:37:42;;;;;;;0.10;0.10;;;;;;;18.86;52.56;98752.69;4464157;32;33673;-72
2023/08/07 01:40:10;;;;;;;0.57;0.45;;;;;;;18.56;53.46;98754.62;4465689;32;33112;-72
2023/08/07 01:42:38;;;;;;;0.20;0.20;;;;;;;18.60;52.97;98751.31;4465462;32;33597;-71
2023/08/07 01:45:06;;;;;;;0.47;0.40;;;;;;;18.27;53.84;98752.78;4452303;32;33613;-71
2023/08/07 01:47:34;;;;;;;0.10;0.10;;;;;;;18.75;52.47;98745.91;4463235;32;33593;-71
2023/08/07 01:50:02;;;;;;;0.35;0.10;;;;;;;18.80;52.17;98757.00;4465300;32;33448;-71
2023/08/07 01:52:30;;;;;;;0.20;0.10;;;;;;;18.52;53.05;98754.16;4474082;31;34126;-71
2023/08/07 01:54:58;;;;;;;0.35;0.35;;;;;;;19.06;52.27;98764.56;4490367;31;34841;-71
2023/08/07 01:57:25;;;;;;;0.45;0.25;;;;;;;18.70;52.19;98755.59;4480703;31;34016;-71
2023/08/07 01:59:53;;;;;;;0.22;0.20;;;;;;;18.38;52.98;98763.12;4485904;31;33360;-71
2023/08/07 02:02:20;;;;;;;0.32;0.30;;;;;;;18.44;52.67;98759.66;4482985;31;33492;-71
2023/08/07 02:04:48;;;;;;;0.25;0.25;;;;;;;18.59;52.21;98762.38;4493480;31;35213;-71
2023/08/07 02:07:16;;;;;;;0.20;0.20;;;;;;;18.22;52.98;98761.47;4469240;31;33685;-71
2023/08/07 02:09:43;;;;;;;0.37;0.28;;;;;;;17.97;53.61;98765.47;4488827;31;34182;-72
2023/08/07 02:12:11;;;;;;;0.43;0.32;;;;;;;17.96;53.16;98764.63;4481947;31;33629;-71
2023/08/07 02:14:39;;;;;;;0.32;0.20;;;;;;;17.96;53.55;98764.63;4489208;31;34036;-71
2023/08/07 02:17:07;;;;;;;0.43;0.32;;;;;;;17.88;53.43;98754.75;4497514;31;33638;-71
2023/08/07 02:19:35;;;;;;;0.28;0.28;;;;;;;18.00;53.61;98759.69;4493263;31;33321;-73
2023/08/07 02:22:03;;;;;;;2.75;0.85;;;;;;;18.08;53.68;98751.50;4492449;31;33518;-72
2023/08/07 02:24:31;;;;;;;0.32;0.32;;;;;;;18.17;53.22;98755.78;4493082;31;34958;-75
2023/08/07 02:26:59;;;;;;;0.30;0.30;;;;;;;18.41;52.30;98756.50;4492605;31;33882;-74
2023/08/07 02:29:26;;;;;;;0.37;0.37;;;;;;;18.07;52.48;98757.91;4489126;31;34967;-74
2023/08/07 02:31:54;;;;;;;1.42;0.20;;;;;;;17.96;52.97;98759.22;4499526;31;34750;-75
2023/08/07 02:34:22;;;;;;;0.40;0.30;;;;;;;17.70;53.42;98765.03;4498640;31;33794;-74
2023/08/07 02:36:49;;;;;;;0.20;0.20;;;;;;;18.11;52.59;98754.66;4478170;31;33638;-75
2023/08/07 02:39:17;;;;;;;0.20;0.20;;;;;;;18.31;51.96;98746.78;4484512;31;33125;-75
2023/08/07 02:41:45;;;;;;;0.25;0.20;;;;;;;18.29;52.05;98750.72;4483244;32;33450;-75
2023/08/07 02:44:12;;;;;;;1.02;0.62;;;;;;;18.00;53.19;98757.81;4486284;31;33956;-74
2023/08/07 02:46:40;;;;;;;0.70;0.22;;;;;;;17.89;53.42;98763.72;4489865;31;33635;-76
2023/08/07 02:49:07;;;;;;;0.15;0.15;;;;;;;17.85;52.76;98757.00;4484529;31;32987;-75
2023/08/07 02:51:35;;;;;;;0.20;0.20;;;;;;;17.49;53.75;98759.50;4496892;31;35049;-76
2023/08/07 02:54:02;;;;;;;0.47;0.20;;;;;;;17.65;53.56;98770.16;4492909;31;32785;-75
2023/08/07 02:56:30;;;;;;;2.55;0.30;;;;;;;17.64;53.12;98774.72;4497025;31;32556;-75
2023/08/07 02:58:59;;;;;;;0.30;0.20;;;;;;;18.13;52.43;98774.25;4482127;31;33209;-76
2023/08/07 03:01:27;;;;;;;0.20;0.20;;;;;;;18.20;53.03;98774.34;4667710;26;33907;-73
2023/08/07 03:03:55;;;;;;;0.70;0.50;;;;;;;18.19;51.86;98780.78;4480299;32;34033;-74
2023/08/07 03:06:23;;;;;;;0.20;0.20;;;;;;;17.95;52.42;98779.22;4469362;32;33563;-76
2023/08/07 03:08:50;;;;;;;0.20;0.20;;;;;;;17.51;53.33;98776.38;4474647;32;34192;-74
2023/08/07 03:11:18;;;;;;;0.73;0.52;;;;;;;17.88;52.91;98776.41;4484316;32;34268;-74
2023/08/07 03:13:46;;;;;;;0.10;0.10;;;;;;;18.29;51.57;98777.81;4479277;32;35053;-74
2023/08/07 03:16:14;;;;;;;0.45;0.20;;;;;;;17.98;52.51;98775.25;4483839;32;34110;-74
2023/08/07 03:18:42;;;;;;;0.32;0.32;;;;;;;17.73;54.40;98778.22;4480479;32;33676;-74
2023/08/07 03:21:09;;;;;;;0.50;0.20;;;;;;;18.16;51.97;98786.59;4484820;32;34937;-74
2023/08/07 03:23:37;;;;;;;0.10;0.10;;;;;;;18.25;51.60;98780.03;4483977;32;33982;-74
2023/08/07 03:26:10;;;;;;;0.20;0.20;;;;;;;18.44;50.90;98778.62;4483533;32;33717;-74
2023/08/07 03:28:48;;;;;;;0.82;0.40;;;;;;;18.34;50.80;98778.94;4482918;32;33234;-74
2023/08/07 03:31:17;;;;;;;0.22;0.22;;;;;;;17.75;52.44;98772.59;4480899;32;35056;-74
2023/08/07 03:33:45;;;;;;;0.73;0.32;;;;;;;17.72;53.40;98776.53;4468648;32;33812;-74
2023/08/07 03:36:13;;;;;;;0.20;0.20;;;;;;;18.08;53.01;98784.81;4473197;32;33840;-70
2023/08/07 03:38:41;;;;;;;0.45;0.30;;;;;;;18.28;51.77;98774.25;4483324;32;34198;-70
2023/08/07 03:41:08;;;;;;;0.55;0.43;;;;;;;18.36;51.62;98785.00;4482735;32;34599;-71
2023/08/07 03:43:37;;;;;;;2.42;0.75;;;;;;;18.36;51.95;98786.84;4483282;32;34042;-71
2023/08/07 03:46:05;;;;;;;0.35;0.30;;;;;;;18.34;51.10;98788.91;4480447;31;33766;-71
2023/08/07 03:48:32;;;;;;;0.30;0.30;;;;;;;18.14;51.56;98799.47;4482929;32;34108;-70
2023/08/07 03:51:05;;;;;;;0.03;0.03;;;;;;;17.90;52.10;98785.16;4480551;32;33560;-70
2023/08/07 03:53:35;;;;;;;0.32;0.20;;;;;;;18.18;51.27;98798.06;4481332;32;34980;-70
2023/08/07 03:56:03;;;;;;;0.20;0.20;;;;;;;18.33;51.23;98806.19;4474840;32;34800;-72
2023/08/07 03:58:31;;;;;;;0.52;0.30;;;;;;;18.38;50.29;98799.19;4483271;32;33242;-72
2023/08/07 04:01:00;;;;;;;0.30;0.30;;;;;;;18.29;51.56;98810.31;4482299;32;33709;-73
2023/08/07 04:03:27;;;;;;;0.85;0.30;;;;;;;18.18;51.30;98806.19;4482760;32;34072;-73
2023/08/07 04:05:55;;;;;;;0.55;0.45;;;;;;;18.79;49.99;98811.41;4482279;32;34779;-74
2023/08/07 04:08:24;;;;;;;0.37;0.30;;;;;;;17.91;52.21;98808.53;4479741;32;33500;-73
2023/08/07 04:11:02;;;;;;;1.70;0.37;;;;;;;18.44;50.27;98813.03;4481744;32;33813;-73
2023/08/07 04:13:31;;;;;;;0.32;0.22;;;;;;;18.19;51.33;98821.41;4484314;32;35037;-73
2023/08/07 04:16:00;;;;;;;0.57;0.43;;;;;;;18.19;51.87;98828.69;4483531;31;33944;-74
2023/08/07 04:18:29;;;;;;;0.62;0.40;;;;;;;18.26;52.13;98819.63;4484988;32;33490;-75
2023/08/07 04:20:57;;;;;;;0.70;0.55;;;;;;;18.67;49.87;98821.88;4483982;32;33909;-74
2023/08/07 04:23:25;;;;;;;0.10;0.10;;;;;;;18.19;50.05;98826.00;4478076;32;32802;-75
2023/08/07 04:25:53;;;;;;;0.57;0.43;;;;;;;18.66;49.85;98827.50;4484496;32;34965;-75
2023/08/07 04:28:21;;;;;;;0.52;0.40;;;;;;;18.91;49.90;98822.59;4484283;32;33272;-75
2023/08/07 04:30:51;;;;;;;0.30;0.30;;;;;;;18.69;49.77;98822.53;4484645;32;34866;-75
2023/08/07 04:33:21;;;;;;;1.08;0.30;;;;;;;18.73;49.82;98831.97;4481802;32;34114;-75
2023/08/07 04:35:49;;;;;;;1.85;0.95;;;;;;;18.38;50.16;98828.97;4480550;32;33445;-75
2023/08/07 04:38:17;;;;;;;0.75;0.50;;;;;;;18.27;51.75;98832.19;4483256;32;33263;-75
2023/08/07 04:40:49;;;;;;;0.47;0.20;;;;;;;18.42;50.09;98828.59;4479869;32;33849;-75
2023/08/07 04:43:21;;;;;;;0.88;0.35;;;;;;;18.63;49.70;98820.56;4484381;32;32805;-76
2023/08/07 04:45:49;;;;;;;1.17;0.52;;;;;;;18.65;49.32;98823.06;4485025;32;34015;-75
2023/08/07 04:48:17;;;;;;;1.08;0.50;;;;;;;18.36;49.92;98825.63;4485467;31;33139;-75
2023/08/07 04:50:45;;;;;;;1.92;0.37;;;;;;;18.27;49.78;98831.34;4484250;32;33767;-75
2023/08/07 04:53:13;;;;;;;1.75;0.75;;;;;;;18.48;49.43;98838.69;4484781;32;34972;-75
2023/08/07 04:55:41;;;;;;;0.98;0.45;;;;;;;18.59;49.60;98835.53;4483907;32;34044;-75
2023/08/07 04:58:08;;;;;;;1.35;0.40;;;;;;;18.75;49.15;98832.66;4469889;32;34325;-75
2023/08/07 05:00:36;;;;;;;1.30;0.40;;;;;;;18.80;49.50;98832.91;4469485;32;33737;-75
2023/08/07 05:03:04;;;;;;;0.65;0.40;;;;;;;19.12;49.66;98829.94;4465281;32;33648;-75
2023/08/07 05:05:32;;;;;;;0.65;0.30;;;;;;;19.32;48.09;98825.56;4464398;32;33688;-75
2023/08/07 05:08:00;;;;;;;4.85;0.75;;;;;;;19.86;47.36;98830.47;4466631;32;33177;-75
2023/08/07 05:10:28;;;;;;;0.50;0.37;;;;;;;19.82;46.79;98829.19;4464507;32;34928;-74
2023/08/07 05:12:56;;;;;;;2.30;0.50;;;;;;;20.00;46.69;98829.53;4465747;32;33809;-74
2023/08/07 05:15:24;;;;;;;0.80;0.30;;;;;;;19.26;49.96;98835.31;4462506;32;33573;-74
2023/08/07 05:17:52;;;;;;;0.90;0.52;;;;;;;19.24;49.03;98828.41;4464026;32;33086;-77
2023/08/07 05:20:20;;;;;;;1.55;0.47;;;;;;;19.53;48.54;98832.88;4465533;32;32588;-76
2023/08/07 05:22:48;;;;;;;0.95;0.30;;;;;;;19.59;46.95;98834.81;4466155;32;34522;-74
2023/08/07 05:25:16;;;;;;;0.82;0.35;;;;;;;19.36;46.40;98843.16;4463408;32;33884;-74
2023/08/07 05:27:45;;;;;;;0.47;0.40;;;;;;;19.89;46.22;98842.81;4460678;32;34246;-76
2023/08/07 05:30:13;;;;;;;0.80;0.45;;;;;;;20.06;44.89;98844.19;4463276;32;33815;-73
2023/08/07 05:32:41;;;;;;;1.27;0.57;;;;;;;19.56;46.56;98856.91;4465538;32;34533;-75
2023/08/07 05:35:09;;;;;;;0.55;0.32;;;;;;;18.90;47.60;98858.88;4478385;32;35526;-75
2023/08/07 05:37:37;;;;;;;0.28;0.28;;;;;;;19.43;46.54;98863.03;4478885;32;33320;-71
2023/08/07 05:40:06;;;;;;;0.20;0.20;;;;;;;19.81;46.08;98857.37;4479147;32;33869;-72
2023/08/07 05:42:34;;;;;;;2.58;0.52;;;;;;;19.97;46.38;98867.97;4481898;32;33755;-71
2023/08/07 05:45:03;;;;;;;0.20;0.20;;;;;;;19.74;47.61;98862.75;4481017;32;35164;-74
2023/08/07 05:47:32;;;;;;;0.45;0.30;;;;;;;19.86;45.77;98862.22;4469450;32;32367;-76
2023/08/07 05:50:00;;;;;;;0.68;0.47;;;;;;;19.42;46.96;98865.94;4483314;32;34719;-76
2023/08/07 05:52:31;;;;;;;0.57;0.40;;;;;;;19.50;46.80;98871.25;4482529;32;35114;-80
2023/08/07 05:55:01;;;;;;;0.52;0.35;;;;;;;19.65;45.41;98879.38;4482814;32;34003;-81
2023/08/07 05:57:30;;;;;;;1.08;0.40;;;;;;;19.68;45.79;98884.41;4480898;32;33467;-81
2023/08/07 05:59:57;;;;;;;4.72;1.17;;;;;;;20.05;45.21;98885.16;4481504;32;33804;-79
2023/08/07 06:02:26;;;;;;;0.30;0.30;;;;;;;20.19;44.89;98878.75;4478847;32;34804;-77
2023/08/07 06:04:54;;;;;;;1.00;0.45;;;;;;;20.08;46.90;98885.59;4477885;32;33541;-76
2023/08/07 06:07:22;;;;;;;0.80;0.32;;;;;;;20.24;45.30;98890.72;4481835;32;33404;-76
2023/08/07 06:09:49;;;;;;;0.52;0.45;;;;;;;19.83;46.85;98887.03;4478927;32;34200;-79
2023/08/07 06:12:17;;;;;;;1.20;0.30;;;;;;;19.80;46.41;98892.84;4455328;32;33545;-70
2023/08/07 06:14:45;;;;;;;0.35;0.32;;;;;;;20.39;46.03;98906.09;4480597;32;33594;-74
2023/08/07 06:17:12;;;;;;;0.47;0.25;;;;;;;19.76;45.61;98898.69;4476552;32;33114;-73
2023/08/07 06:19:40;;;;;;;0.20;0.20;;;;;;;20.16;45.30;98904.47;4479444;32;35067;-73
2023/08/07 06:22:08;;;;;;;0.60;0.40;;;;;;;19.31;46.71;98897.13;4478006;32;34916;-73
2023/08/07 06:24:35;;;;;;;3.83;0.50;;;;;;;19.78;45.63;98901.22;4480158;32;34545;-73
2023/08/07 06:27:03;;;;;;;1.48;0.65;;;;;;;19.29;46.66;98902.75;4479570;32;33104;-72
2023/08/07 06:29:31;;;;;;;2.30;0.35;;;;;;;18.96;47.26;98901.50;4474917;32;33788;-73
2023/08/07 06:31:58;;;;;;;0.80;0.32;;;;;;;19.35;45.84;98903.84;4479731;32;33928;-74
2023/08/07 06:34:28;;;;;;;0.20;0.20;;;;;;;18.97;46.39;98903.19;4476952;32;33934;-74
2023/08/07 06:36:56;;;;;;;3.72;0.50;;;;;;;19.58;45.43;98905.56;4471486;31;33443;-73
2023/08/07 06:39:23;;;;;;;0.70;0.37;;;;;;;19.37;46.88;98903.69;4478909;32;34261;-75
2023/08/07 06:41:51;;;;;;;0.30;0.30;;;;;;;18.94;47.73;98900.84;4482746;32;33925;-75
2023/08/07 06:44:19;;;;;;;0.75;0.40;;;;;;;19.19;47.01;98907.62;4483214;32;33756;-75
2023/08/07 06:46:46;;;;;;;2.67;0.45;;;;;;;19.40;46.13;98914.16;4484117;32;33404;-76
2023/08/07 06:49:14;;;;;;;0.37;0.30;;;;;;;19.08;46.57;98905.41;4481779;32;33418;-76
2023/08/07 06:51:42;;;;;;;0.62;0.32;;;;;;;19.00;46.72;98906.34;4477646;32;34228;-74
2023/08/07 06:54:09;;;;;;;4.57;0.30;;;;;;;18.55;48.28;98910.91;4478023;32;34691;-75
2023/08/07 06:56:40;;;;;;;0.70;0.35;;;;;;;19.18;47.62;98915.97;4474994;32;33961;-77
2023/08/07 06:59:08;;;;;;;1.33;0.43;;;;;;;19.09;46.65;98920.66;4483138;32;34731;-78
2023/08/07 07:01:36;;;;;;;0.40;0.40;;;;;;;19.16;47.75;98920.72;4479949;32;34928;-77
2023/08/07 07:04:04;;;;;;;0.60;0.25;;;;;;;19.33;46.93;98919.50;4481331;32;33707;-76
2023/08/07 07:06:31;;;;;;;0.88;0.60;;;;;;;19.37;46.15;98919.94;4482036;32;34174;-77
2023/08/07 07:08:59;;;;;;;1.12;0.43;;;;;;;19.83;45.60;98920.47;4480098;32;33979;-79
2023/08/07 07:11:27;;;;;;;0.85;0.40;;;;;;;19.45;47.25;98919.81;4483902;32;34172;-79
2023/08/07 07:13:55;;;;;;;0.22;0.22;;;;;;;19.94;47.16;98924.56;4483438;32;33691;-79
2023/08/07 07:16:22;;;;;;;1.12;0.40;;;;;;;19.72;46.35;98929.13;4480810;32;33371;-74
2023/08/07 07:18:51;;;;;;;0.35;0.30;;;;;;;19.45;46.67;98931.50;4482266;32;33350;-75
2023/08/07 07:21:18;;;;;;;0.95;0.55;;;;;;;19.61;47.11;98933.16;4482128;32;36737;-78
2023/08/07 07:23:46;;;;;;;0.25;0.10;;;;;;;19.82;46.28;98929.66;4478846;32;33760;-75
2023/08/07 07:26:14;;;;;;;0.20;0.20;;;;;;;19.48;47.20;98925.69;4480451;32;33418;-75
2023/08/07 07:28:41;;;;;;;0.75;0.40;;;;;;;19.13;48.54;98937.38;4481133;32;33555;-75
2023/08/07 07:31:11;;;;;;;0.80;0.35;;;;;;;19.36;47.64;98929.97;4478899;32;35036;-75
2023/08/07 07:33:41;;;;;;;0.47;0.30;;;;;;;19.48;47.28;98930.28;4473937;32;33459;-76
2023/08/07 07:36:16;;;;;;;0.95;0.30;;;;;;;19.12;47.35;98928.41;4465595;32;33535;-76
2023/08/07 07:38:47;;;;;;;1.02;0.40;;;;;;;19.37;47.70;98930.81;4469031;32;33318;-77
2023/08/07 07:41:15;;;;;;;1.85;0.52;;;;;;;20.02;47.19;98927.13;4473757;32;33771;-77
2023/08/07 07:43:43;;;;;;;0.88;0.47;;;;;;;20.06;46.37;98931.09;4467903;32;33520;-76
2023/08/07 07:46:11;;;;;;;5.00;0.52;;;;;;;20.07;45.85;98935.53;4470215;32;34469;-75
2023/08/07 07:48:39;;;;;;;0.90;0.45;;;;;;;19.95;46.22;98931.66;4475161;32;33184;-75
2023/08/07 07:51:06;;;;;;;0.20;0.20;;;;;;;19.84;45.20;98933.03;4469378;32;33704;-75
2023/08/07 07:53:34;;;;;;;0.55;0.40;;;;;;;20.27;44.87;98943.00;4469112;32;32068;-77
2023/08/07 07:56:02;;;;;;;2.60;0.37;;;;;;;20.18;44.78;98945.84;4470687;32;33114;-77
2023/08/07 07:58:30;;;;;;;0.43;0.22;;;;;;;20.09;44.37;98943.47;4478698;32;34852;-75
2023/08/07 08:00:58;;;;;;;0.28;0.20;;;;;;;20.08;44.49;98949.94;4471248;32;34110;-78
2023/08/07 08:03:25;;;;;;;0.10;0.10;;;;;;;19.97;45.64;98954.03;4464964;32;33453;-75
2023/08/07 08:05:53;;;;;;;1.17;0.40;;;;;;;20.56;45.83;98952.88;4475674;32;32906;-76
2023/08/07 08:08:21;;;;;;;0.90;0.28;;;;;;;20.28;42.76;98974.56;4470758;32;33581;-77
2023/08/07 08:10:50;;;;;;;0.57;0.28;;;;;;;20.12;43.57;98962.94;4470678;32;35109;-78
2023/08/07 08:13:19;;;;;;;0.35;0.17;;;;;;;20.20;42.13;98965.53;4467622;32;32603;-77
2023/08/07 08:15:46;;;;;;;1.52;0.20;;;;;;;20.12;43.18;98970.25;4474910;32;34324;-77
2023/08/07 08:18:14;;;;;;;0.57;0.57;;;;;;;20.29;42.98;98976.22;4477525;32;33606;-77
2023/08/07 08:20:42;;;;;;;0.65;0.40;;;;;;;20.46;42.94;98983.91;4479946;32;35271;-75
2023/08/07 08:23:10;;;;;;;0.10;0.10;;;;;;;20.48;43.42;98991.88;4468977;32;33657;-74
2023/08/07 08:25:37;;;;;;;0.80;0.28;;;;;;;20.82;42.71;98991.12;4473339;32;32873;-76
2023/08/07 08:28:05;;;;;;;0.52;0.20;;;;;;;20.69;43.21;98986.44;4471803;32;34599;-74
2023/08/07 08:30:33;;;;;;;0.75;0.40;;;;;;;20.46;43.89;98994.78;4468780;32;34476;-76
2023/08/07 08:33:00;;;;;;;0.50;0.32;;;;;;;20.66;44.16;98999.59;4470902;32;33332;-76
2023/08/07 08:35:28;;;;;;;0.30;0.20;;;;;;;20.05;43.62;99001.94;4468539;32;33340;-70
2023/08/07 08:37:56;;;;;;;0.13;0.13;;;;;;;20.41;42.72;98997.25;4469158;32;34780;-72
2023/08/07 08:40:24;;;;;;;0.65;0.20;;;;;;;20.11;43.53;99001.16;4466125;32;35138;-71
2023/08/07 08:42:56;;;;;;;2.15;0.20;;;;;;;20.79;42.15;99023.31;4472049;32;33527;-71
2023/08/07 08:45:25;;;;;;;0.20;0.20;;;;;;;20.71;42.50;99013.44;4465746;31;33147;-71
2023/08/07 08:48:01;;;;;;;1.45;0.22;;;;;;;20.16;43.50;99017.72;4475627;32;33772;-71
2023/08/07 08:50:29;;;;;;;0.70;0.50;;;;;;;19.94;44.53;99014.16;4472453;32;33644;-71
2023/08/07 08:52:57;;;;;;;0.60;0.35;;;;;;;19.88;44.30;99028.50;4472824;32;33550;-71
2023/08/07 08:55:25;;;;;;;0.10;0.10;;;;;;;20.14;44.42;99026.06;4480145;32;32932;-71
2023/08/07 08:57:56;;;;;;;0.10;0.10;;;;;;;20.29;43.37;99028.72;4447222;32;32293;-74
2023/08/07 09:00:25;;;;;;;0.20;0.20;;;;;;;20.01;44.29;99031.38;4447899;32;34066;-74
2023/08/07 09:02:53;;;;;;;0.70;0.30;;;;;;;19.67;44.03;99034.72;4446756;32;34052;-74
2023/08/07 09:05:21;;;;;;;3.83;0.43;;;;;;;20.18;44.43;99032.78;4449544;32;34413;-76
2023/08/07 09:07:49;;;;;;;1.08;0.20;;;;;;;19.92;43.99;99029.81;4447185;32;33220;-76
2023/08/07 09:10:18;;;;;;;0.43;0.20;;;;;;;20.15;43.96;99027.75;4449477;32;33748;-75
2023/08/07 09:13:00;;;;;;;0.20;0.10;;;;;;;19.86;43.33;99030.56;4450231;32;34937;-75
2023/08/07 09:15:29;;;;;;;0.28;0.10;;;;;;;20.11;43.13;99036.50;4448764;32;34969;-76
2023/08/07 09:17:58;;;;;;;0.03;0.03;;;;;;;20.74;41.76;99037.50;4449645;32;34718;-76
2023/08/07 09:20:26;;;;;;;0.20;0.10;;;;;;;20.90;42.67;99041.81;4433967;32;34936;-76
2023/08/07 09:22:54;;;;;;;0.10;0.10;;;;;;;20.70;41.42;99044.34;4449169;32;33673;-76
2023/08/07 09:25:31;;;;;;;0.22;0.08;;;;;;;20.80;41.69;99038.56;4445699;32;32922;-75
2023/08/07 09:28:06;;;;;;;0.10;0.10;;;;;;;20.98;41.66;99032.66;4419576;32;33929;-77
2023/08/07 09:30:37;;;;;;;0.10;0.10;;;;;;;21.33;40.45;99044.38;4444120;32;32833;-76
2023/08/07 09:33:06;;;;;;;0.00;0.00;;;;;;;21.19;40.54;99054.34;4447756;32;34242;-76
2023/08/07 09:35:34;;;;;;;0.10;0.10;;;;;;;21.72;40.34;99049.19;4448537;32;33837;-77
2023/08/07 09:38:02;;;;;;;0.00;0.00;;;;;;;21.49;39.62;99045.97;4450334;32;33654;-76
2023/08/07 09:40:30;;;;;;;0.47;0.20;;;;;;;20.75;41.31;99062.81;4447598;32;34743;-74
2023/08/07 09:43:01;;;;;;;0.10;0.10;;;;;;;20.59;41.27;99053.91;4450847;32;33710;-74
2023/08/07 09:45:30;;;;;;;0.20;0.03;;;;;;;20.42;42.07;99069.63;4434568;32;33883;-74
2023/08/07 09:48:03;;;;;;;0.00;0.00;;;;;;;20.68;41.11;99074.47;4448632;32;33662;-75
2023/08/07 09:50:31;;;;;;;3.70;0.20;;;;;;;20.33;43.01;99072.66;4448719;32;32733;-75
2023/08/07 09:53:00;;;;;;;0.03;0.03;;;;;;;20.61;42.65;99061.84;4448295;32;34204;-76
2023/08/07 09:55:27;;;;;;;0.30;0.22;;;;;;;20.59;43.00;99072.94;4445237;32;33493;-76
2023/08/07 09:57:55;;;;;;;0.35;0.15;;;;;;;20.02;43.87;99068.34;4430781;32;33733;-75
2023/08/07 10:00:23;;;;;;;0.20;0.10;;;;;;;20.45;42.65;99065.69;4474600;32;33792;-75
2023/08/07 10:02:51;;;;;;;0.65;0.15;;;;;;;20.44;43.64;99064.81;4481964;32;34601;-76
2023/08/07 10:05:19;;;;;;;0.28;0.10;;;;;;;20.93;42.74;99065.91;4478768;32;34188;-76
2023/08/07 10:07:47;;;;;;;2.58;0.22;;;;;;;21.55;42.30;99070.50;4480460;32;33409;-76
2023/08/07 10:10:15;;;;;;;0.00;0.00;;;;;;;21.13;40.81;99074.19;4474607;32;34403;-76
2023/08/07 10:12:45;;;;;;;0.10;0.10;;;;;;;21.04;40.07;99070.78;4477678;32;33066;-74
2023/08/07 10:15:15;;;;;;;0.25;0.10;;;;;;;21.20;40.13;99068.81;4463586;32;33165;-74
2023/08/07 10:17:43;;;;;;;0.20;0.10;;;;;;;21.15;40.40;99075.69;4479209;32;34562;-74
2023/08/07 10:20:11;;;;;;;0.17;0.10;;;;;;;20.92;40.07;99070.47;4481945;32;34221;-75
2023/08/07 10:22:39;;;;;;;0.50;0.30;;;;;;;21.34;40.44;99063.22;4476406;32;34097;-75
2023/08/07 10:25:08;;;;;;;0.10;0.10;;;;;;;21.87;40.49;99076.28;4459071;32;34044;-75
2023/08/07 10:27:38;;;;;;;0.45;0.15;;;;;;;22.01;39.31;99085.34;4457013;32;32586;-74
2023/08/07 10:30:12;;;;;;;1.20;0.00;;;;;;;21.43;40.35;99093.87;4455992;32;33532;-76
2023/08/07 10:32:42;;;;;;;0.10;0.10;;;;;;;21.66;38.94;99090.03;4458207;32;32462;-76
2023/08/07 10:35:09;;;;;;;0.47;0.20;;;;;;;21.51;40.62;99085.56;4447918;32;33002;-76
2023/08/07 10:37:45;;;;;;;0.43;0.10;;;;;;;21.27;41.40;99081.41;4443739;32;33583;-76
2023/08/07 10:40:13;;;;;;;0.30;0.30;;;;;;;21.60;40.88;99092.53;4443435;32;33705;-76
2023/08/07 10:42:58;;;;;;;0.10;0.10;;;;;;;21.99;39.60;99098.31;4443607;32;33778;-77
2023/08/07 10:45:28;;;;;;;0.20;0.10;;;;;;;21.68;39.53;99080.63;4438179;32;33041;-76
2023/08/07 10:48:02;;;;;;;0.90;0.13;;;;;;;21.80;40.26;99089.06;4424665;32;32456;-75
2023/08/07 10:50:31;;;;;;;0.37;0.10;;;;;;;21.75;42.23;99094.25;4422299;32;32514;-77
2023/08/07 10:53:02;;;;;;;0.85;0.30;;;;;;;22.15;39.46;99092.53;4425247;32;35112;-76
2023/08/07 10:55:32;;;;;;;2.03;0.20;;;;;;;22.01;40.81;99096.25;4429652;32;33847;-75
2023/08/07 10:57:59;;;;;;;0.62;0.15;;;;;;;21.55;40.72;99100.44;4413034;32;33449;-77
2023/08/07 11:00:28;;;;;;;0.20;0.10;;;;;;;21.03;42.15;99106.38;4417764;32;35044;-77
2023/08/07 11:02:57;;;;;;;0.47;0.30;;;;;;;21.17;43.21;99110.84;4413048;32;34467;-77
2023/08/07 11:05:25;;;;;;;1.08;0.32;;;;;;;20.90;43.16;99101.66;4419525;32;34746;-74
2023/08/07 11:07:53;;;;;;;0.25;0.20;;;;;;;21.09;43.65;99109.13;4434118;32;33873;-77
2023/08/07 11:10:21;;;;;;;0.32;0.10;;;;;;;21.44;43.25;99120.06;4445403;32;34152;-77
2023/08/07 11:12:49;;;;;;;0.20;0.10;;;;;;;21.38;42.22;99119.00;4445997;32;34553;-77
2023/08/07 11:15:16;;;;;;;0.88;0.20;;;;;;;21.54;42.28;99134.16;4444343;32;34008;-75
2023/08/07 11:17:46;;;;;;;0.80;0.13;;;;;;;21.40;42.92;99129.66;4444184;32;32350;-75
2023/08/07 11:20:14;;;;;;;0.10;0.10;;;;;;;21.35;43.08;99134.88;4446933;32;33757;-72
2023/08/07 11:22:42;;;;;;;0.30;0.17;;;;;;;21.42;42.89;99124.87;4458882;32;33832;-72
2023/08/07 11:25:11;;;;;;;0.00;0.00;;;;;;;21.54;41.92;99131.44;4456164;32;33183;-73
2023/08/07 11:27:38;;;;;;;1.52;0.20;;;;;;;21.02;42.86;99135.41;4462389;32;33601;-75
2023/08/07 11:30:11;;;;;;;0.52;0.28;;;;;;;21.27;43.61;99135.00;4480005;32;35787;-73
2023/08/07 11:32:39;;;;;;;0.85;0.20;;;;;;;21.12;43.85;99138.66;4481791;32;34023;-73
2023/08/07 11:35:08;;;;;;;0.70;0.35;;;;;;;21.35;41.34;99141.16;4481511;32;34411;-73
2023/08/07 11:37:35;;;;;;;0.60;0.32;;;;;;;20.73;44.17;99144.59;4471515;32;33441;-73
2023/08/07 11:40:04;;;;;;;0.00;0.00;;;;;;;20.66;43.87;99166.28;4479125;32;33728;-74
2023/08/07 11:42:31;;;;;;;0.35;0.20;;;;;;;20.74;43.59;99157.16;4475952;32;35209;-74